Time;durP1;ratioP1;P1;durP2;ratioP2;P2;SDS_P1;SDS_P2;PMS_P1;PMS_P2;Temp;Humidity;BMP_temperature;BMP_pressure;BME280_temperature;BME280_humidity;BME280_pressure;Samples;Min_cycle;Max_cycle;Signal;HPM_P1;HPM_P2
2022/09/19 00:01:37;;;;;;;7.25;3.40;;;;;;;;;;5054880;28;20059;-68
2022/09/19 00:04:04;;;;;;;9.35;3.65;;;;;;;;;;5051082;28;20083;-68
2022/09/19 00:06:32;;;;;;;12.35;4.32;;;;;;;;;;5049393;28;20092;-68
2022/09/19 00:08:58;;;;;;;10.63;4.07;;;;;;;;;;5039373;28;20036;-68
2022/09/19 00:11:23;;;;;;;8.07;3.53;;;;;;;;;;5034187;28;20356;-69
2022/09/19 00:13:49;;;;;;;11.70;4.20;;;;;;;;;;5033583;28;20021;-68
2022/09/19 00:16:23;;;;;;;11.80;3.72;;;;;;;;;;5050546;28;20505;-68
2022/09/19 00:18:49;;;;;;;7.70;3.40;;;;;;;;;;5051436;28;20070;-70
2022/09/19 00:21:22;;;;;;;9.13;4.18;;;;;;;;;;5050175;28;20488;-67
2022/09/19 00:26:31;;;;;;;7.68;3.42;;;;;;;;;;5050718;28;20416;-68
2022/09/19 00:28:56;;;;;;;6.13;2.25;;;;;;;;;;5051066;28;20100;-69
2022/09/19 00:31:21;;;;;;;5.78;2.20;;;;;;;;;;5050913;28;20039;-69
2022/09/19 00:33:47;;;;;;;6.13;1.98;;;;;;;;;;5051224;28;20016;-68
2022/09/19 00:36:13;;;;;;;5.38;1.80;;;;;;;;;;5049165;28;20008;-70
2022/09/19 00:38:38;;;;;;;8.10;1.67;;;;;;;;;;5051326;28;20016;-68
2022/09/19 00:41:05;;;;;;;4.82;1.48;;;;;;;;;;5051020;28;20108;-69
2022/09/19 00:43:47;;;;;;;2.97;1.52;;;;;;;;;;5050873;28;20021;-69
2022/09/19 00:46:12;;;;;;;3.60;1.42;;;;;;;;;;5032006;28;20028;-68
2022/09/19 00:48:41;;;;;;;6.78;2.72;;;;;;;;;;5050722;28;20021;-69
2022/09/19 00:51:08;;;;;;;4.32;1.42;;;;;;;;;;5037076;28;20089;-67
2022/09/19 00:53:33;;;;;;;11.63;1.70;;;;;;;;;;5051289;28;20024;-69
2022/09/19 00:55:58;;;;;;;4.88;1.55;;;;;;;;;;5050889;28;20019;-68
2022/09/19 00:58:34;;;;;;;4.75;1.85;;;;;;;;;;5050677;28;20013;-68
2022/09/19 01:01:00;;;;;;;2.42;1.63;;;;;;;;;;5050666;28;20033;-69
2022/09/19 01:03:26;;;;;;;6.10;1.90;;;;;;;;;;5050881;28;20067;-67
2022/09/19 01:06:09;;;;;;;5.18;2.10;;;;;;;;;;5049540;28;20075;-69
2022/09/19 01:08:37;;;;;;;4.38;2.05;;;;;;;;;;5050169;28;20483;-69
2022/09/19 01:11:02;;;;;;;7.25;2.10;;;;;;;;;;5050917;28;20013;-69
2022/09/19 01:13:42;;;;;;;5.82;1.85;;;;;;;;;;5050781;28;20370;-67
2022/09/19 01:16:28;;;;;;;4.50;2.33;;;;;;;;;;5050091;28;20290;-67
2022/09/19 01:19:02;;;;;;;6.78;2.22;;;;;;;;;;5029136;28;20531;-68
2022/09/19 01:21:39;;;;;;;10.02;2.95;;;;;;;;;;5049212;28;20075;-68
2022/09/19 01:24:19;;;;;;;5.90;1.80;;;;;;;;;;5032733;28;20027;-68
2022/09/19 01:26:44;;;;;;;9.57;2.15;;;;;;;;;;5049251;28;20051;-69
2022/09/19 01:29:16;;;;;;;5.35;2.33;;;;;;;;;;5032341;28;20044;-69
2022/09/19 01:31:44;;;;;;;8.40;2.05;;;;;;;;;;5050099;28;20246;-69
2022/09/19 01:34:13;;;;;;;4.95;2.42;;;;;;;;;;5049715;28;20106;-68
2022/09/19 01:36:43;;;;;;;4.65;2.00;;;;;;;;;;5047805;28;20017;-68
2022/09/19 01:39:09;;;;;;;6.18;2.17;;;;;;;;;;5050015;28;20013;-67
2022/09/19 01:41:35;;;;;;;5.95;2.55;;;;;;;;;;5049846;28;20530;-68
2022/09/19 01:44:08;;;;;;;8.40;2.78;;;;;;;;;;5049935;28;20105;-69
2022/09/19 01:46:44;;;;;;;5.45;2.45;;;;;;;;;;5049161;28;20576;-69
2022/09/19 01:49:28;;;;;;;10.82;2.78;;;;;;;;;;5049190;28;20020;-69
2022/09/19 01:52:01;;;;;;;8.20;2.50;;;;;;;;;;5039391;28;20183;-67
2022/09/19 01:54:37;;;;;;;4.82;2.40;;;;;;;;;;5049101;28;20382;-69
2022/09/19 01:57:03;;;;;;;7.55;2.67;;;;;;;;;;5048880;28;20347;-68
2022/09/19 01:59:40;;;;;;;5.32;2.60;;;;;;;;;;5049667;28;20023;-68
2022/09/19 02:02:08;;;;;;;11.43;2.75;;;;;;;;;;5049462;28;20374;-69
2022/09/19 02:04:36;;;;;;;8.50;2.90;;;;;;;;;;5049271;28;20013;-67
2022/09/19 02:07:01;;;;;;;7.80;2.85;;;;;;;;;;5047649;28;20031;-68
2022/09/19 02:09:29;;;;;;;10.27;3.75;;;;;;;;;;5037846;28;20017;-68
2022/09/19 02:11:59;;;;;;;9.68;2.90;;;;;;;;;;5049131;28;20432;-68
2022/09/19 02:14:27;;;;;;;5.93;2.63;;;;;;;;;;5049403;28;20044;-67
2022/09/19 02:16:52;;;;;;;4.93;2.77;;;;;;;;;;5048526;28;20021;-68
2022/09/19 02:19:20;;;;;;;5.65;2.72;;;;;;;;;;5049024;28;20028;-66
2022/09/19 02:21:48;;;;;;;6.80;2.75;;;;;;;;;;5047925;28;20242;-68
2022/09/19 02:24:17;;;;;;;5.90;3.10;;;;;;;;;;5049492;28;20056;-68
2022/09/19 02:26:43;;;;;;;12.52;3.03;;;;;;;;;;5048179;28;20017;-68
2022/09/19 02:29:12;;;;;;;7.78;3.03;;;;;;;;;;5031666;28;20385;-67
2022/09/19 02:31:38;;;;;;;13.20;3.10;;;;;;;;;;5048884;28;20106;-68
2022/09/19 02:34:05;;;;;;;18.58;3.45;;;;;;;;;;5048932;28;20101;-69
2022/09/19 02:36:36;;;;;;;8.55;3.13;;;;;;;;;;5047052;28;20005;-66
2022/09/19 02:39:04;;;;;;;8.27;2.63;;;;;;;;;;5039121;28;20021;-68
2022/09/19 02:41:38;;;;;;;7.72;2.85;;;;;;;;;;5046178;28;20017;-69
2022/09/19 02:44:14;;;;;;;6.72;3.03;;;;;;;;;;5049103;28;20021;-68
2022/09/19 02:46:47;;;;;;;5.75;2.65;;;;;;;;;;5048144;28;20021;-68
2022/09/19 02:49:30;;;;;;;8.55;3.05;;;;;;;;;;5048104;28;20025;-69
2022/09/19 02:51:58;;;;;;;10.77;3.05;;;;;;;;;;5048535;28;20062;-68
2022/09/19 02:54:30;;;;;;;10.07;3.47;;;;;;;;;;5048942;28;20017;-67
2022/09/19 02:56:57;;;;;;;10.30;3.17;;;;;;;;;;5047904;28;20258;-69
2022/09/19 02:59:25;;;;;;;6.15;3.03;;;;;;;;;;5048874;28;20395;-68
2022/09/19 03:01:53;;;;;;;14.23;3.55;;;;;;;;;;5030775;28;20009;-68
2022/09/19 03:04:23;;;;;;;7.87;3.60;;;;;;;;;;5049628;28;20051;-67
2022/09/19 03:07:19;;;;;;;10.45;3.35;;;;;;;;;;5032729;28;20009;-68
2022/09/19 03:09:53;;;;;;;8.60;3.20;;;;;;;;;;5026173;28;20025;-68
2022/09/19 03:12:25;;;;;;;6.75;2.95;;;;;;;;;;5044857;28;20013;-68
2022/09/19 03:14:58;;;;;;;10.35;2.92;;;;;;;;;;5052990;28;20180;-67
2022/09/19 03:17:38;;;;;;;9.82;3.05;;;;;;;;;;5052085;28;20092;-68
2022/09/19 03:20:03;;;;;;;9.48;3.15;;;;;;;;;;5052392;28;20017;-67
2022/09/19 03:22:29;;;;;;;9.32;2.35;;;;;;;;;;5051718;28;20024;-68
2022/09/19 03:24:54;;;;;;;11.30;2.80;;;;;;;;;;5034569;28;20016;-68
2022/09/19 03:27:19;;;;;;;7.45;3.20;;;;;;;;;;5051624;28;20028;-67
2022/09/19 03:29:44;;;;;;;6.13;3.20;;;;;;;;;;5052170;28;20017;-70
2022/09/19 03:32:10;;;;;;;9.45;3.20;;;;;;;;;;5052261;28;20083;-69
2022/09/19 03:34:35;;;;;;;6.22;3.13;;;;;;;;;;5051570;28;20024;-69
2022/09/19 03:37:02;;;;;;;15.05;3.25;;;;;;;;;;5033631;28;20047;-69
2022/09/19 03:39:27;;;;;;;5.78;3.03;;;;;;;;;;5052412;28;20020;-69
2022/09/19 03:41:53;;;;;;;7.10;4.10;;;;;;;;;;5034492;28;20016;-67
2022/09/19 03:44:19;;;;;;;8.85;3.40;;;;;;;;;;5052193;28;20025;-69
2022/09/19 03:46:46;;;;;;;5.78;3.58;;;;;;;;;;5047677;28;20017;-70
2022/09/19 03:49:11;;;;;;;7.13;3.22;;;;;;;;;;5050901;28;20497;-67
2022/09/19 03:51:37;;;;;;;13.40;3.53;;;;;;;;;;5039099;28;20016;-68
2022/09/19 03:54:02;;;;;;;5.88;3.35;;;;;;;;;;5052053;28;20017;-67
2022/09/19 03:56:27;;;;;;;10.07;4.05;;;;;;;;;;5033414;28;20370;-67
2022/09/19 03:58:53;;;;;;;8.63;3.83;;;;;;;;;;5051114;28;20021;-68
2022/09/19 04:01:18;;;;;;;6.30;3.30;;;;;;;;;;5051768;28;20027;-69
2022/09/19 04:03:43;;;;;;;10.60;4.05;;;;;;;;;;5051131;28;20027;-70
2022/09/19 04:06:09;;;;;;;9.18;3.25;;;;;;;;;;5050502;28;20025;-67
2022/09/19 04:08:34;;;;;;;7.10;3.60;;;;;;;;;;5050999;28;20036;-68
2022/09/19 04:11:00;;;;;;;8.32;3.72;;;;;;;;;;5051595;28;20017;-69
2022/09/19 04:13:25;;;;;;;8.88;3.17;;;;;;;;;;5032624;28;20377;-65
2022/09/19 04:15:51;;;;;;;10.23;3.70;;;;;;;;;;5050235;28;20430;-66
2022/09/19 04:18:16;;;;;;;7.93;3.30;;;;;;;;;;5028932;28;20028;-67
2022/09/19 04:20:41;;;;;;;8.45;3.90;;;;;;;;;;5050527;28;20532;-68
2022/09/19 04:23:07;;;;;;;7.75;3.65;;;;;;;;;;5051285;28;20041;-69
2022/09/19 04:25:35;;;;;;;10.18;3.95;;;;;;;;;;5051361;28;20475;-70
2022/09/19 04:28:02;;;;;;;8.40;3.20;;;;;;;;;;5030609;28;20032;-69
2022/09/19 04:30:27;;;;;;;8.18;4.47;;;;;;;;;;5037586;28;20021;-67
2022/09/19 04:32:52;;;;;;;7.88;3.88;;;;;;;;;;5049395;28;20017;-69
2022/09/19 04:35:18;;;;;;;10.55;3.70;;;;;;;;;;5050673;28;20690;-69
2022/09/19 04:37:44;;;;;;;5.03;3.25;;;;;;;;;;5047469;28;20018;-68
2022/09/19 04:40:09;;;;;;;9.93;4.10;;;;;;;;;;5045559;28;20036;-68
2022/09/19 04:42:35;;;;;;;10.55;4.53;;;;;;;;;;5052513;28;20059;-69
2022/09/19 04:45:01;;;;;;;9.02;4.15;;;;;;;;;;5032343;28;20024;-69
2022/09/19 04:47:28;;;;;;;12.52;4.57;;;;;;;;;;5044817;28;20488;-69
2022/09/19 04:49:56;;;;;;;9.50;5.50;;;;;;;;;;5043414;28;20014;-69
2022/09/19 04:52:23;;;;;;;9.75;4.38;;;;;;;;;;5049543;28;20013;-70
2022/09/19 04:54:48;;;;;;;14.43;4.57;;;;;;;;;;5038543;28;20020;-69
2022/09/19 04:57:15;;;;;;;14.57;4.78;;;;;;;;;;5049316;28;20398;-66
2022/09/19 04:59:40;;;;;;;9.23;4.25;;;;;;;;;;5048851;28;20005;-71
2022/09/19 05:02:07;;;;;;;10.00;4.68;;;;;;;;;;5048967;28;20035;-68
2022/09/19 05:04:32;;;;;;;8.73;4.57;;;;;;;;;;5046771;28;20008;-69
2022/09/19 05:06:57;;;;;;;7.35;4.47;;;;;;;;;;5046017;28;20043;-68
2022/09/19 05:09:22;;;;;;;13.40;4.80;;;;;;;;;;5044084;28;20024;-71
2022/09/19 05:11:55;;;;;;;10.35;4.85;;;;;;;;;;5049992;28;20016;-68
2022/09/19 05:14:21;;;;;;;7.40;4.50;;;;;;;;;;5032183;28;20041;-69
2022/09/19 05:16:47;;;;;;;7.15;4.43;;;;;;;;;;5048936;28;20076;-70
2022/09/19 05:19:13;;;;;;;8.88;4.32;;;;;;;;;;5042398;28;20021;-68
2022/09/19 05:21:38;;;;;;;7.35;4.28;;;;;;;;;;5045186;28;20578;-68
2022/09/19 05:24:03;;;;;;;10.20;3.83;;;;;;;;;;5050117;28;20024;-69
2022/09/19 05:26:29;;;;;;;12.63;4.35;;;;;;;;;;5048406;28;20016;-68
2022/09/19 05:28:54;;;;;;;7.18;3.72;;;;;;;;;;5034093;28;20033;-68
2022/09/19 05:31:20;;;;;;;9.65;3.78;;;;;;;;;;5047843;28;20044;-68
2022/09/19 05:33:45;;;;;;;6.07;3.40;;;;;;;;;;5048309;28;20134;-68
2022/09/19 05:36:11;;;;;;;8.70;3.90;;;;;;;;;;5045722;28;20139;-67
2022/09/19 05:38:36;;;;;;;5.00;2.83;;;;;;;;;;5042222;28;20028;-69
2022/09/19 05:41:02;;;;;;;4.93;2.78;;;;;;;;;;5047841;28;20390;-69
2022/09/19 05:43:28;;;;;;;10.77;3.03;;;;;;;;;;5048922;28;20032;-68
2022/09/19 05:45:54;;;;;;;4.82;2.47;;;;;;;;;;5048871;28;20021;-67
2022/09/19 05:48:20;;;;;;;9.15;2.65;;;;;;;;;;5048135;28;20090;-67
2022/09/19 05:50:46;;;;;;;3.90;2.33;;;;;;;;;;5038987;28;20498;-69
2022/09/19 05:55:56;;;;;;;6.15;2.42;;;;;;;;;;5038016;28;20079;-67
2022/09/19 05:58:21;;;;;;;3.65;1.90;;;;;;;;;;5048375;28;20438;-68
2022/09/19 06:00:46;;;;;;;6.03;1.88;;;;;;;;;;5048777;28;20108;-67
2022/09/19 06:03:15;;;;;;;4.57;2.00;;;;;;;;;;5030677;28;20044;-67
2022/09/19 06:05:43;;;;;;;2.83;1.55;;;;;;;;;;5030227;28;20025;-69
2022/09/19 06:08:08;;;;;;;4.78;1.70;;;;;;;;;;5047803;28;20070;-68
2022/09/19 06:10:40;;;;;;;4.68;1.80;;;;;;;;;;5049356;28;20013;-68
2022/09/19 06:13:06;;;;;;;2.15;1.48;;;;;;;;;;5044683;28;20024;-70
2022/09/19 06:15:32;;;;;;;3.60;1.40;;;;;;;;;;5031082;28;20024;-68
2022/09/19 06:17:58;;;;;;;2.92;1.30;;;;;;;;;;5048091;28;20036;-66
2022/09/19 06:20:23;;;;;;;2.97;1.55;;;;;;;;;;5049399;28;20025;-68
2022/09/19 06:22:50;;;;;;;1.98;1.02;;;;;;;;;;5048036;28;20049;-69
2022/09/19 06:25:15;;;;;;;7.05;1.75;;;;;;;;;;5049265;28;20066;-68
2022/09/19 06:27:46;;;;;;;3.78;1.20;;;;;;;;;;5048102;28;20021;-68
2022/09/19 06:30:11;;;;;;;5.15;1.33;;;;;;;;;;5048410;28;20099;-68
2022/09/19 06:32:37;;;;;;;7.13;1.30;;;;;;;;;;5048058;28;20017;-72
2022/09/19 06:35:02;;;;;;;3.35;1.30;;;;;;;;;;5048180;28;20020;-69
2022/09/19 06:37:27;;;;;;;4.40;1.83;;;;;;;;;;5047652;28;20162;-69
2022/09/19 06:39:53;;;;;;;5.17;2.47;;;;;;;;;;5048832;28;20033;-68
2022/09/19 06:42:18;;;;;;;4.18;2.05;;;;;;;;;;5044694;28;20352;-68
2022/09/19 06:44:43;;;;;;;10.02;2.85;;;;;;;;;;5048757;28;20378;-68
2022/09/19 06:47:08;;;;;;;6.68;3.03;;;;;;;;;;5047894;28;20363;-69
2022/09/19 06:49:34;;;;;;;5.50;3.25;;;;;;;;;;5042300;28;20013;-67
2022/09/19 06:52:00;;;;;;;11.48;5.10;;;;;;;;;;5047706;28;20021;-69
2022/09/19 06:54:25;;;;;;;14.80;5.70;;;;;;;;;;5029977;28;20025;-70
2022/09/19 06:56:52;;;;;;;12.77;6.80;;;;;;;;;;5055815;28;20020;-69
2022/09/19 06:59:18;;;;;;;11.25;7.70;;;;;;;;;;5044153;28;20433;-69
2022/09/19 07:01:45;;;;;;;13.05;7.35;;;;;;;;;;5048492;28;20017;-68
2022/09/19 07:04:10;;;;;;;17.83;9.60;;;;;;;;;;5048204;28;20541;-69
2022/09/19 07:06:35;;;;;;;15.18;9.15;;;;;;;;;;5046399;28;20104;-65
2022/09/19 07:09:02;;;;;;;17.95;10.40;;;;;;;;;;5048297;28;20023;-71
2022/09/19 07:11:27;;;;;;;20.92;11.25;;;;;;;;;;5048928;28;20009;-68
2022/09/19 07:13:52;;;;;;;19.98;11.07;;;;;;;;;;5048299;28;20017;-70
2022/09/19 07:16:18;;;;;;;18.85;10.52;;;;;;;;;;5047503;28;20108;-69
2022/09/19 07:18:43;;;;;;;23.95;10.15;;;;;;;;;;5047318;28;20025;-69
2022/09/19 07:21:08;;;;;;;18.50;10.57;;;;;;;;;;5047306;28;20017;-70
2022/09/19 07:23:33;;;;;;;14.63;9.85;;;;;;;;;;5048621;28;20020;-69
2022/09/19 07:26:00;;;;;;;16.45;10.40;;;;;;;;;;5049109;28;20021;-68
2022/09/19 07:28:26;;;;;;;15.57;10.00;;;;;;;;;;5048053;28;20013;-68
2022/09/19 07:30:52;;;;;;;15.60;9.00;;;;;;;;;;5048746;28;20020;-68
2022/09/19 07:33:20;;;;;;;19.58;9.10;;;;;;;;;;5030257;28;20013;-70
2022/09/19 07:35:46;;;;;;;18.92;9.05;;;;;;;;;;5039248;28;20475;-71
2022/09/19 07:38:12;;;;;;;11.63;7.88;;;;;;;;;;5047381;28;20039;-68
2022/09/19 07:40:38;;;;;;;18.17;8.07;;;;;;;;;;5048907;28;20013;-67
2022/09/19 07:43:04;;;;;;;10.45;6.38;;;;;;;;;;5048357;28;20449;-67
2022/09/19 07:45:31;;;;;;;10.43;6.45;;;;;;;;;;5048486;28;20023;-67
2022/09/19 07:47:56;;;;;;;14.05;6.40;;;;;;;;;;5047599;28;20017;-70
2022/09/19 07:50:21;;;;;;;11.15;6.43;;;;;;;;;;5046102;28;20013;-70
2022/09/19 07:52:47;;;;;;;13.20;6.35;;;;;;;;;;5050533;28;20439;-68
2022/09/19 07:55:15;;;;;;;7.28;4.90;;;;;;;;;;5052237;28;20458;-69
2022/09/19 07:57:54;;;;;;;10.90;5.65;;;;;;;;;;5051479;28;20024;-68
2022/09/19 08:00:19;;;;;;;9.18;4.43;;;;;;;;;;5051713;28;20027;-69
2022/09/19 08:02:52;;;;;;;10.38;4.65;;;;;;;;;;5051346;28;20021;-69
2022/09/19 08:05:17;;;;;;;8.02;4.30;;;;;;;;;;5051303;28;20021;-69
2022/09/19 08:07:43;;;;;;;12.88;4.30;;;;;;;;;;5048127;28;20066;-70
2022/09/19 08:10:08;;;;;;;7.78;4.47;;;;;;;;;;5052103;28;20046;-69
2022/09/19 08:12:33;;;;;;;7.47;3.92;;;;;;;;;;5033669;28;20021;-70
2022/09/19 08:14:58;;;;;;;6.38;3.85;;;;;;;;;;5051797;28;20060;-69
2022/09/19 08:17:24;;;;;;;10.38;4.72;;;;;;;;;;5051013;28;20287;-69
2022/09/19 08:19:49;;;;;;;9.13;4.80;;;;;;;;;;5050727;28;20032;-70
2022/09/19 08:22:14;;;;;;;8.90;4.57;;;;;;;;;;5051129;28;20041;-67
2022/09/19 08:24:39;;;;;;;9.18;4.28;;;;;;;;;;5051826;28;20027;-69
2022/09/19 08:27:04;;;;;;;16.55;5.63;;;;;;;;;;5046765;28;20021;-70
2022/09/19 08:29:32;;;;;;;7.53;4.32;;;;;;;;;;5042184;28;20013;-69
2022/09/19 08:31:59;;;;;;;10.23;4.20;;;;;;;;;;5051420;28;20013;-71
2022/09/19 08:34:24;;;;;;;14.77;5.30;;;;;;;;;;5050455;28;20009;-70
2022/09/19 08:36:49;;;;;;;8.23;3.85;;;;;;;;;;5049758;28;20039;-72
2022/09/19 08:39:15;;;;;;;9.07;4.57;;;;;;;;;;5051087;28;20440;-70
2022/09/19 08:41:40;;;;;;;8.15;4.18;;;;;;;;;;5051590;28;20087;-70
2022/09/19 08:44:10;;;;;;;12.95;4.38;;;;;;;;;;5051076;28;20025;-69
2022/09/19 08:46:44;;;;;;;13.57;4.88;;;;;;;;;;5049842;28;20071;-69
2022/09/19 08:49:24;;;;;;;9.07;4.45;;;;;;;;;;5031521;28;20017;-69
2022/09/19 08:52:01;;;;;;;12.50;5.20;;;;;;;;;;5036522;28;20021;-69
2022/09/19 08:54:30;;;;;;;7.72;4.47;;;;;;;;;;5050918;28;20025;-67
2022/09/19 08:56:57;;;;;;;10.32;3.75;;;;;;;;;;5031267;28;20071;-69
2022/09/19 08:59:23;;;;;;;8.80;3.80;;;;;;;;;;5050188;28;20025;-72
2022/09/19 09:01:52;;;;;;;9.60;4.03;;;;;;;;;;5050138;28;20095;-70
2022/09/19 09:04:24;;;;;;;10.77;4.38;;;;;;;;;;5049904;28;20104;-68
2022/09/19 09:07:08;;;;;;;7.07;3.58;;;;;;;;;;5048856;28;20020;-69
2022/09/19 09:09:49;;;;;;;12.98;3.90;;;;;;;;;;5050695;28;20016;-68
2022/09/19 09:12:20;;;;;;;13.02;4.88;;;;;;;;;;5045074;28;20028;-69
2022/09/19 09:14:48;;;;;;;10.38;3.92;;;;;;;;;;5050350;28;20036;-70
2022/09/19 09:17:19;;;;;;;12.20;4.03;;;;;;;;;;5049629;28;20074;-69
2022/09/19 09:20:04;;;;;;;10.38;3.58;;;;;;;;;;5050177;28;20561;-68
2022/09/19 09:22:40;;;;;;;11.02;4.05;;;;;;;;;;5049714;28;20020;-69
2022/09/19 09:25:12;;;;;;;11.95;3.65;;;;;;;;;;5050150;28;20024;-70
2022/09/19 09:27:49;;;;;;;9.07;3.00;;;;;;;;;;5049121;28;20025;-70
2022/09/19 09:30:16;;;;;;;8.77;3.47;;;;;;;;;;5050320;28;20374;-68
2022/09/19 09:32:43;;;;;;;6.38;3.40;;;;;;;;;;5048950;28;20043;-68
2022/09/19 09:35:26;;;;;;;9.68;3.33;;;;;;;;;;5049577;28;20088;-68
2022/09/19 09:38:01;;;;;;;9.95;3.40;;;;;;;;;;5048703;28;20017;-68
2022/09/19 09:43:37;;;;;;;11.30;4.18;;;;;;;;;;5050167;28;20044;-69
2022/09/19 09:46:02;;;;;;;;;;;;;;;;;;5050716;28;20047;-69
2022/09/19 09:48:34;;;;;;;11.60;5.28;;;;;;;;;;5048442;28;19940;-68
2022/09/19 09:51:00;;;;;;;8.10;5.40;;;;;;;;;;5045988;28;20536;-70
2022/09/19 09:53:25;;;;;;;12.20;5.50;;;;;;;;;;5049762;28;20044;-67
2022/09/19 09:56:16;;;;;;;10.32;5.60;;;;;;;;;;5049232;28;20009;-72
2022/09/19 09:58:52;;;;;;;10.05;5.03;;;;;;;;;;5039886;28;20016;-70
2022/09/19 10:04:16;;;;;;;9.75;4.53;;;;;;;;;;5049077;28;20032;-69
2022/09/19 10:06:46;;;;;;;14.07;5.18;;;;;;;;;;5047679;28;20020;-68
2022/09/19 10:09:16;;;;;;;12.23;5.05;;;;;;;;;;5049362;28;20112;-69
2022/09/19 10:11:51;;;;;;;10.43;5.25;;;;;;;;;;5049476;28;20020;-73
2022/09/19 10:14:19;;;;;;;11.60;6.05;;;;;;;;;;5048662;28;20027;-71
2022/09/19 10:16:46;;;;;;;12.48;5.38;;;;;;;;;;5048295;28;20100;-69
2022/09/19 10:19:14;;;;;;;12.40;6.32;;;;;;;;;;5049266;28;20025;-69
2022/09/19 10:21:40;;;;;;;7.43;4.70;;;;;;;;;;5048712;28;20100;-70
2022/09/19 10:24:44;;;;;;;9.50;4.47;;;;;;;;;;5049499;28;20059;-70
2022/09/19 10:27:13;;;;;;;8.32;4.07;;;;;;;;;;4966847;28;20503;-69
2022/09/19 10:29:50;;;;;;;9.75;3.40;;;;;;;;;;5031242;28;20025;-68
2022/09/19 10:32:17;;;;;;;10.55;3.85;;;;;;;;;;5049208;28;20016;-68
2022/09/19 10:34:44;;;;;;;9.90;3.30;;;;;;;;;;5048264;28;20074;-70
2022/09/19 10:37:12;;;;;;;11.68;2.42;;;;;;;;;;5034261;28;20029;-66
2022/09/19 10:39:46;;;;;;;6.37;2.57;;;;;;;;;;5049180;28;20097;-70
2022/09/19 10:44:54;;;;;;;9.27;2.40;;;;;;;;;;5009867;28;20137;-70
2022/09/19 10:47:20;;;;;;;14.60;2.53;;;;;;;;;;5002996;28;20440;-68
2022/09/19 10:49:46;;;;;;;7.88;2.50;;;;;;;;;;5008490;28;20125;-65
2022/09/19 10:52:13;;;;;;;6.70;2.15;;;;;;;;;;5008486;28;20018;-69
2022/09/19 10:54:40;;;;;;;6.10;2.00;;;;;;;;;;4989815;28;20460;-68
2022/09/19 10:57:25;;;;;;;4.15;1.67;;;;;;;;;;4989207;28;20010;-66
2022/09/19 10:59:51;;;;;;;12.95;2.25;;;;;;;;;;5002381;28;20014;-69
2022/09/19 11:02:26;;;;;;;3.35;1.42;;;;;;;;;;4987560;28;20037;-67
2022/09/19 11:05:03;;;;;;;6.40;2.25;;;;;;;;;;4988499;28;20018;-67
2022/09/19 11:07:54;;;;;;;3.83;1.10;;;;;;;;;;4987737;28;20601;-66
2022/09/19 11:10:28;;;;;;;8.15;1.27;;;;;;;;;;4990630;28;20030;-70
2022/09/19 11:13:09;;;;;;;6.43;1.27;;;;;;;;;;4974343;28;20022;-67
2022/09/19 11:15:39;;;;;;;3.85;1.25;;;;;;;;;;4995412;28;20013;-66
2022/09/19 11:18:15;;;;;;;4.03;1.17;;;;;;;;;;4988976;28;20164;-65
2022/09/19 11:20:49;;;;;;;5.43;1.08;;;;;;;;;;4971170;28;20018;-68
2022/09/19 11:23:29;;;;;;;6.22;1.25;;;;;;;;;;4971429;28;20129;-68
2022/09/19 11:26:03;;;;;;;2.60;0.90;;;;;;;;;;4989906;28;20014;-69
2022/09/19 11:28:43;;;;;;;2.35;1.05;;;;;;;;;;4995809;28;20021;-69
2022/09/19 11:31:08;;;;;;;5.18;1.20;;;;;;;;;;4992943;28;20118;-69
2022/09/19 11:33:35;;;;;;;7.57;1.63;;;;;;;;;;4992550;28;20097;-67
2022/09/19 11:36:26;;;;;;;4.78;1.20;;;;;;;;;;4982019;28;20241;-69
2022/09/19 11:38:52;;;;;;;6.00;1.00;;;;;;;;;;4970578;28;20348;-69
2022/09/19 11:41:36;;;;;;;3.80;1.20;;;;;;;;;;4993474;28;20479;-65
2022/09/19 11:44:07;;;;;;;3.70;1.13;;;;;;;;;;5001331;28;20373;-66
2022/09/19 11:46:52;;;;;;;8.02;1.10;;;;;;;;;;4995283;28;20283;-70
2022/09/19 11:49:17;;;;;;;6.32;1.23;;;;;;;;;;4990977;28;20401;-69
2022/09/19 11:51:51;;;;;;;3.60;1.00;;;;;;;;;;4991797;28;20511;-67
2022/09/19 11:54:44;;;;;;;4.28;1.23;;;;;;;;;;4992587;28;20236;-67
2022/09/19 11:57:28;;;;;;;1.90;1.13;;;;;;;;;;4992188;28;20014;-66
2022/09/19 12:00:00;;;;;;;3.38;1.17;;;;;;;;;;5000689;28;20046;-68
2022/09/19 12:02:28;;;;;;;2.53;1.00;;;;;;;;;;4992223;28;20042;-68
2022/09/19 12:05:15;;;;;;;2.53;0.95;;;;;;;;;;4991551;28;20371;-69
2022/09/19 12:08:00;;;;;;;4.72;1.17;;;;;;;;;;4990335;28;20368;-67
2022/09/19 12:10:29;;;;;;;2.92;1.30;;;;;;;;;;4992639;28;20018;-67
2022/09/19 12:12:54;;;;;;;;;;;;;;;;;;4992810;28;20069;-65
2022/09/19 12:15:25;;;;;;;3.85;1.00;;;;;;;;;;4978893;28;20275;-69
2022/09/19 12:18:03;;;;;;;5.63;1.42;;;;;;;;;;4991336;28;20041;-68
2022/09/19 12:20:42;;;;;;;7.03;1.55;;;;;;;;;;4992381;28;20026;-69
2022/09/19 12:24:52;;;;;;;;;;;;;;;;;;4974605;28;20025;-68
2022/09/19 12:25:54;;;;;;;5.93;0.90;;;;;;;;;;4992228;28;19913;-65
2022/09/19 12:28:20;;;;;;;5.78;1.08;;;;;;;;;;4991691;28;20514;-69
2022/09/19 12:30:48;;;;;;;5.63;1.30;;;;;;;;;;4991856;28;20018;-67
2022/09/19 12:33:16;;;;;;;3.60;1.60;;;;;;;;;;4991445;28;20068;-66
2022/09/19 12:35:42;;;;;;;;;;;;;;;;;;4991055;28;20086;-65
2022/09/19 12:38:13;;;;;;;7.68;1.52;;;;;;;;;;4990069;28;19908;-67
2022/09/19 12:40:44;;;;;;;7.18;1.60;;;;;;;;;;4992232;28;20026;-67
2022/09/19 12:43:27;;;;;;;11.43;2.15;;;;;;;;;;4991510;28;20033;-67
2022/09/19 12:46:10;;;;;;;9.90;1.77;;;;;;;;;;4987407;28;20057;-67
2022/09/19 12:48:43;;;;;;;6.13;1.40;;;;;;;;;;4983013;28;20022;-68
2022/09/19 12:51:10;;;;;;;6.13;1.48;;;;;;;;;;4982570;28;20074;-67
2022/09/19 12:53:39;;;;;;;7.65;1.20;;;;;;;;;;4985089;28;20020;-66
2022/09/19 12:56:04;;;;;;;4.18;1.48;;;;;;;;;;4983919;28;20014;-66
2022/09/19 12:58:38;;;;;;;3.10;0.82;;;;;;;;;;4984591;28;20037;-69
2022/09/19 13:01:11;;;;;;;5.75;1.23;;;;;;;;;;4982623;28;20038;-67
2022/09/19 13:03:41;;;;;;;5.15;1.08;;;;;;;;;;4983926;28;20067;-66
2022/09/19 13:06:17;;;;;;;5.18;1.23;;;;;;;;;;4966382;28;20042;-68
2022/09/19 13:09:16;;;;;;;11.38;1.23;;;;;;;;;;4982915;28;20033;-67
2022/09/19 13:11:52;;;;;;;6.82;1.17;;;;;;;;;;4949937;28;20030;-66
2022/09/19 13:14:23;;;;;;;6.57;1.48;;;;;;;;;;4966163;28;20076;-69
2022/09/19 13:25:07;;;;;;;2.97;1.52;;;;;;;;;;4984061;28;20118;-71
2022/09/19 13:27:33;;;;;;;4.65;1.10;;;;;;;;;;4983236;28;20526;-70
2022/09/19 13:30:00;;;;;;;3.05;0.93;;;;;;;;;;4982567;28;20027;-67
2022/09/19 13:32:27;;;;;;;0.95;0.65;;;;;;;;;;4965475;28;20030;-68
2022/09/19 13:35:06;;;;;;;8.60;1.20;;;;;;;;;;4982170;28;20065;-69
2022/09/19 13:37:34;;;;;;;;;;;;;;;;;;4981923;28;20071;-66
2022/09/19 13:40:01;;;;;;;3.73;0.90;;;;;;;;;;4983860;28;19906;-66
2022/09/19 13:42:34;;;;;;;9.07;1.00;;;;;;;;;;4983915;28;20322;-69
2022/09/19 13:45:23;;;;;;;4.53;0.98;;;;;;;;;;4983318;28;20040;-68
2022/09/19 13:47:51;;;;;;;2.25;0.80;;;;;;;;;;4952516;28;20164;-70
2022/09/19 13:50:20;;;;;;;2.53;0.90;;;;;;;;;;4979814;28;20320;-65
2022/09/19 13:53:01;;;;;;;5.60;0.80;;;;;;;;;;4982013;28;20037;-73
2022/09/19 13:55:34;;;;;;;5.53;0.90;;;;;;;;;;4965669;28;20026;-65
2022/09/19 13:58:18;;;;;;;2.97;0.88;;;;;;;;;;4983204;28;20481;-69
2022/09/19 14:00:44;;;;;;;3.33;0.80;;;;;;;;;;4981620;28;20026;-68
2022/09/19 14:03:30;;;;;;;4.32;0.70;;;;;;;;;;4983043;28;20032;-68
2022/09/19 14:06:17;;;;;;;2.20;0.50;;;;;;;;;;4983040;28;20033;-72
2022/09/19 14:08:42;;;;;;;4.03;0.85;;;;;;;;;;4981859;28;20073;-70
2022/09/19 14:11:08;;;;;;;2.65;0.50;;;;;;;;;;4982284;28;20108;-69
2022/09/19 14:13:35;;;;;;;2.30;0.60;;;;;;;;;;4983386;28;20030;-70
2022/09/19 14:16:03;;;;;;;2.33;0.50;;;;;;;;;;4982754;28;20173;-66
2022/09/19 14:18:49;;;;;;;4.72;0.88;;;;;;;;;;4981820;28;20144;-69
2022/09/19 14:21:26;;;;;;;5.65;1.45;;;;;;;;;;4980700;28;20014;-68
2022/09/19 14:23:57;;;;;;;2.28;0.77;;;;;;;;;;4982636;28;20030;-68
2022/09/19 14:26:28;;;;;;;6.22;0.80;;;;;;;;;;4981891;28;20041;-68
2022/09/19 14:29:04;;;;;;;1.25;0.75;;;;;;;;;;4982178;28;20491;-69
2022/09/19 14:31:30;;;;;;;2.47;0.80;;;;;;;;;;4982000;28;20030;-68
2022/09/19 14:34:01;;;;;;;3.85;0.88;;;;;;;;;;4982628;28;20022;-69
2022/09/19 14:36:53;;;;;;;3.42;0.80;;;;;;;;;;4980731;28;20255;-66
2022/09/19 14:39:19;;;;;;;4.50;0.73;;;;;;;;;;4981536;28;20495;-67
2022/09/19 14:42:03;;;;;;;1.25;0.60;;;;;;;;;;4982223;28;20028;-68
2022/09/19 14:44:41;;;;;;;2.83;0.63;;;;;;;;;;4982362;28;20057;-67
2022/09/19 14:47:18;;;;;;;1.98;0.80;;;;;;;;;;4981022;28;20030;-70
2022/09/19 14:50:02;;;;;;;3.25;1.02;;;;;;;;;;4980905;28;20030;-67
2022/09/19 14:52:29;;;;;;;2.22;0.90;;;;;;;;;;4982197;28;20090;-70
2022/09/19 14:54:57;;;;;;;2.67;0.93;;;;;;;;;;4982888;28;20022;-68
2022/09/19 14:57:23;;;;;;;5.15;1.40;;;;;;;;;;4964616;28;20019;-69
2022/09/19 14:59:49;;;;;;;4.57;0.90;;;;;;;;;;4980597;28;20022;-69
2022/09/19 15:02:19;;;;;;;3.13;0.77;;;;;;;;;;4968831;28;20022;-69
2022/09/19 15:04:49;;;;;;;4.80;2.15;;;;;;;;;;4967517;28;20029;-70
2022/09/19 15:07:15;;;;;;;3.03;0.73;;;;;;;;;;4984524;28;21138;-69
2022/09/19 15:09:41;;;;;;;2.47;0.73;;;;;;;;;;4984693;28;20406;-68
2022/09/19 15:12:19;;;;;;;2.53;0.80;;;;;;;;;;4985668;28;20056;-68
2022/09/19 15:14:48;;;;;;;5.55;1.10;;;;;;;;;;4986196;28;20023;-72
2022/09/19 15:17:20;;;;;;;3.70;1.02;;;;;;;;;;4985464;28;20050;-71
2022/09/19 15:19:46;;;;;;;3.88;0.98;;;;;;;;;;4982960;28;20077;-71